Almonesson, New Jersey
Current Conditions -  °F | °C
As of 4:54 AM on Monday 20 Oct 2014 (Local Time) from KPHL Reporting Station
Scattered Clouds Scattered Clouds  
Wind Chill: 41°   Ceiling: Unl
Heat Index: 41°   Visibility: 10mi
Dew Point: 32°   Wind: 3mph
Humidity: 70%   Direction: 170°S
Pressure: 30.12"   Gusts: NA
Location:  39.8266°N, 75.1276°W
Report Text: KPHL 200854Z 17003KT 10SM SCT250 05/00 A3012 RMK AO2 SLP199 T00500000 53002 $
Loading
Personal Weather Stations






























Interactive Weather Map New forecast layout! Learn more

10-Day Weather Forecast

Advertisements
Track Severe Weather on mobile